Time;durP1;ratioP1;P1;durP2;ratioP2;P2;SDS_P1;SDS_P2;PMS_P1;PMS_P2;Temp;Humidity;BMP_temperature;BMP_pressure;BME280_temperature;BME280_humidity;BME280_pressure;Samples;Min_cycle;Max_cycle;Signal;HPM_P1;HPM_P2
2022/04/13 00:00:58;;;;;;;;;1.25;1.25;;;;;;;;5037533;28;8843;-74
2022/04/13 00:03:26;;;;;;;;;1.00;1.00;;;;;;;;5037776;28;8839;-73
2022/04/13 00:05:55;;;;;;;;;3.25;2.00;;;;;;;;5038393;28;8853;-74
2022/04/13 00:08:22;;;;;;;;;1.00;1.00;;;;;;;;5049384;28;8866;-73
2022/04/13 00:10:49;;;;;;;;;2.00;2.00;;;;;;;;5040166;28;9779;-74
2022/04/13 00:13:16;;;;;;;;;1.00;1.00;;;;;;;;5039045;28;9498;-74
2022/04/13 00:15:43;;;;;;;;;1.00;1.00;;;;;;;;5042045;28;8840;-73
2022/04/13 00:18:12;;;;;;;;;2.00;2.00;;;;;;;;5042369;28;8986;-73
2022/04/13 00:20:39;;;;;;;;;2.00;2.00;;;;;;;;5035811;28;8830;-73
2022/04/13 00:23:07;;;;;;;;;1.00;1.00;;;;;;;;5040888;28;8886;-73
2022/04/13 00:25:38;;;;;;;;;1.00;1.00;;;;;;;;5038457;28;8969;-73
2022/04/13 00:28:06;;;;;;;;;1.50;1.00;;;;;;;;5035297;28;8876;-74
2022/04/13 00:30:33;;;;;;;;;1.00;1.00;;;;;;;;5041440;28;8808;-73
2022/04/13 00:33:01;;;;;;;;;1.00;1.00;;;;;;;;5035816;28;8846;-73
2022/04/13 00:35:30;;;;;;;;;1.25;1.25;;;;;;;;5041566;28;8863;-72
2022/04/13 00:37:58;;;;;;;;;1.00;1.00;;;;;;;;5042427;28;8998;-74
2022/04/13 00:40:25;;;;;;;;;1.00;1.00;;;;;;;;5038370;28;8890;-72
2022/04/13 00:42:53;;;;;;;;;2.00;1.00;;;;;;;;5040547;28;8853;-72
2022/04/13 00:45:20;;;;;;;;;0.75;0.75;;;;;;;;5040705;28;9629;-73
2022/04/13 00:47:47;;;;;;;;;1.50;1.50;;;;;;;;5030038;28;8918;-73
2022/04/13 00:50:15;;;;;;;;;1.00;1.00;;;;;;;;5033196;28;8860;-73
2022/04/13 00:52:46;;;;;;;;;1.25;1.00;;;;;;;;5024654;28;8864;-74
2022/04/13 00:55:15;;;;;;;;;1.50;1.50;;;;;;;;5036605;28;8874;-73
2022/04/13 00:57:44;;;;;;;;;1.00;1.00;;;;;;;;5037609;28;8856;-74
2022/04/13 01:00:12;;;;;;;;;2.00;2.00;;;;;;;;5039716;28;8844;-74
2022/04/13 01:02:40;;;;;;;;;0.25;0.25;;;;;;;;5038428;28;8856;-74
2022/04/13 01:05:09;;;;;;;;;1.00;1.00;;;;;;;;5039211;28;8886;-73
2022/04/13 01:07:37;;;;;;;;;1.50;0.50;;;;;;;;5048274;28;8888;-74
2022/04/13 01:10:07;;;;;;;;;0.75;0.75;;;;;;;;5039948;28;8899;-73
2022/04/13 01:12:34;;;;;;;;;2.50;2.00;;;;;;;;5039695;28;8843;-74
2022/04/13 01:15:02;;;;;;;;;1.25;1.25;;;;;;;;5037929;28;8854;-74
2022/04/13 01:17:29;;;;;;;;;1.00;1.00;;;;;;;;5041356;28;8884;-74
2022/04/13 01:19:57;;;;;;;;;2.00;2.00;;;;;;;;5042023;28;8944;-73
2022/04/13 01:22:26;;;;;;;;;1.00;1.00;;;;;;;;5046192;28;8910;-72
2022/04/13 01:24:54;;;;;;;;;2.75;2.75;;;;;;;;5039975;28;8880;-73
2022/04/13 01:27:21;;;;;;;;;0.75;0.75;;;;;;;;5046267;28;8871;-73
2022/04/13 01:29:52;;;;;;;;;1.00;1.00;;;;;;;;5042047;28;8876;-73
2022/04/13 01:32:19;;;;;;;;;2.00;2.00;;;;;;;;5040028;28;8800;-74
2022/04/13 01:34:48;;;;;;;;;0.00;0.00;;;;;;;;5036753;28;8880;-74
2022/04/13 01:37:15;;;;;;;;;1.25;1.25;;;;;;;;5033117;28;8868;-73
2022/04/13 01:39:44;;;;;;;;;2.00;2.00;;;;;;;;5039009;28;9656;-73
2022/04/13 01:42:11;;;;;;;;;1.50;1.00;;;;;;;;5029134;28;9706;-73
2022/04/13 01:44:41;;;;;;;;;1.00;1.00;;;;;;;;5042046;28;8897;-74
2022/04/13 01:47:09;;;;;;;;;2.50;1.00;;;;;;;;5044165;28;8941;-74
2022/04/13 01:49:37;;;;;;;;;1.00;1.00;;;;;;;;5030809;28;8884;-73
2022/04/13 01:52:04;;;;;;;;;2.00;2.00;;;;;;;;5043261;28;8848;-74
2022/04/13 01:54:32;;;;;;;;;1.75;1.75;;;;;;;;5041061;28;8855;-74
2022/04/13 01:57:01;;;;;;;;;2.00;2.00;;;;;;;;5025615;28;10167;-74
2022/04/13 01:59:28;;;;;;;;;1.50;1.50;;;;;;;;5037793;28;8901;-74
2022/04/13 02:01:55;;;;;;;;;3.00;2.00;;;;;;;;5039305;28;8963;-74
2022/04/13 02:04:25;;;;;;;;;0.25;0.25;;;;;;;;5033473;28;8844;-74
2022/04/13 02:06:53;;;;;;;;;2.00;2.00;;;;;;;;5033348;28;8880;-74
2022/04/13 02:09:21;;;;;;;;;2.50;1.00;;;;;;;;5039602;28;8844;-74
2022/04/13 02:11:48;;;;;;;;;2.00;2.00;;;;;;;;5042888;28;8894;-74
2022/04/13 02:14:17;;;;;;;;;3.00;2.00;;;;;;;;5041479;28;8989;-74
2022/04/13 02:16:46;;;;;;;;;2.75;2.75;;;;;;;;5041288;28;8872;-74
2022/04/13 02:19:13;;;;;;;;;1.67;1.67;;;;;;;;5043824;28;9602;-74
2022/04/13 02:21:41;;;;;;;;;1.00;1.00;;;;;;;;5039852;28;8962;-75
2022/04/13 02:24:09;;;;;;;;;1.00;1.00;;;;;;;;5043230;28;9114;-74
2022/04/13 02:26:36;;;;;;;;;0.50;0.50;;;;;;;;5015547;28;8862;-74
2022/04/13 02:29:04;;;;;;;;;2.75;2.00;;;;;;;;5040851;28;8878;-74
2022/04/13 02:31:33;;;;;;;;;1.50;1.50;;;;;;;;5038869;28;8810;-74
2022/04/13 02:34:03;;;;;;;;;1.50;1.50;;;;;;;;5038868;28;8922;-74
2022/04/13 02:36:31;;;;;;;;;2.00;2.00;;;;;;;;5039124;28;8850;-74
2022/04/13 02:38:58;;;;;;;;;1.75;1.75;;;;;;;;5016101;28;8874;-73
2022/04/13 02:41:25;;;;;;;;;2.25;2.25;;;;;;;;5037909;28;9704;-73
2022/04/13 02:43:52;;;;;;;;;3.00;3.00;;;;;;;;5041236;28;8860;-73
2022/04/13 02:46:20;;;;;;;;;2.25;2.25;;;;;;;;5031960;28;8860;-74
2022/04/13 02:48:48;;;;;;;;;5.00;3.00;;;;;;;;5045652;28;8860;-74
2022/04/13 02:51:16;;;;;;;;;1.25;1.25;;;;;;;;5040795;28;9646;-74
2022/04/13 02:53:43;;;;;;;;;1.50;1.00;;;;;;;;5036301;28;8859;-74
2022/04/13 02:56:10;;;;;;;;;1.25;1.25;;;;;;;;5037420;28;8868;-74
2022/04/13 02:58:37;;;;;;;;;2.00;2.00;;;;;;;;5037006;28;8872;-73
2022/04/13 03:01:06;;;;;;;;;2.50;2.00;;;;;;;;5039908;28;8785;-73
2022/04/13 03:03:33;;;;;;;;;2.00;2.00;;;;;;;;5039227;28;8978;-73
2022/04/13 03:06:02;;;;;;;;;1.50;1.50;;;;;;;;5040456;28;8856;-73
2022/04/13 03:08:30;;;;;;;;;2.75;2.75;;;;;;;;5040657;28;8866;-73
2022/04/13 03:10:58;;;;;;;;;2.00;2.00;;;;;;;;5019298;28;8933;-75
2022/04/13 03:13:25;;;;;;;;;1.50;1.00;;;;;;;;5041069;28;8867;-73
2022/04/13 03:15:52;;;;;;;;;2.25;2.25;;;;;;;;5034568;28;8858;-73
2022/04/13 03:18:19;;;;;;;;;2.75;2.75;;;;;;;;5030663;28;8888;-73
2022/04/13 03:20:47;;;;;;;;;1.00;1.00;;;;;;;;5039085;28;9532;-74
2022/04/13 03:23:16;;;;;;;;;1.00;1.00;;;;;;;;5032529;28;8820;-73
2022/04/13 03:25:43;;;;;;;;;4.75;3.00;;;;;;;;5040110;28;8891;-73
2022/04/13 03:28:10;;;;;;;;;1.25;1.25;;;;;;;;5037691;28;8891;-74
2022/04/13 03:30:37;;;;;;;;;2.00;2.00;;;;;;;;5039993;28;8842;-74
2022/04/13 03:33:05;;;;;;;;;0.00;0.00;;;;;;;;5042274;28;8895;-73
2022/04/13 03:35:32;;;;;;;;;2.50;2.50;;;;;;;;5040487;28;8856;-72
2022/04/13 03:37:59;;;;;;;;;3.75;2.00;;;;;;;;5037872;28;9877;-74
2022/04/13 03:40:27;;;;;;;;;2.00;2.00;;;;;;;;5036621;28;9598;-74
2022/04/13 03:42:55;;;;;;;;;3.00;3.00;;;;;;;;5033795;28;8862;-73
2022/04/13 03:45:22;;;;;;;;;2.00;2.00;;;;;;;;5039293;28;8929;-74
2022/04/13 03:47:50;;;;;;;;;2.25;1.50;;;;;;;;5036316;28;8876;-73
2022/04/13 03:50:18;;;;;;;;;2.50;2.00;;;;;;;;5039263;28;8902;-74
2022/04/13 03:52:46;;;;;;;;;2.00;2.00;;;;;;;;5042816;28;8860;-73
2022/04/13 03:55:14;;;;;;;;;1.75;1.75;;;;;;;;5035753;28;8886;-74
2022/04/13 03:57:42;;;;;;;;;0.75;0.75;;;;;;;;5042110;28;8844;-73
2022/04/13 04:00:10;;;;;;;;;2.75;2.75;;;;;;;;5036964;28;8890;-74
2022/04/13 04:02:38;;;;;;;;;1.00;1.00;;;;;;;;5041237;28;8832;-74
2022/04/13 04:05:06;;;;;;;;;2.00;2.00;;;;;;;;5034943;28;9630;-73
2022/04/13 04:07:33;;;;;;;;;4.00;2.25;;;;;;;;5042835;28;8884;-73
2022/04/13 04:10:01;;;;;;;;;2.00;2.00;;;;;;;;5032813;28;8847;-75
2022/04/13 04:12:28;;;;;;;;;2.25;2.25;;;;;;;;5042448;28;9695;-73
2022/04/13 04:15:01;;;;;;;;;2.75;2.75;;;;;;;;5043852;28;8990;-73
2022/04/13 04:17:28;;;;;;;;;1.50;1.50;;;;;;;;5057879;28;8858;-73
2022/04/13 04:19:56;;;;;;;;;2.25;2.25;;;;;;;;5054716;28;9017;-73
2022/04/13 04:22:24;;;;;;;;;2.50;2.50;;;;;;;;5037235;28;9575;-73
2022/04/13 04:24:51;;;;;;;;;2.00;2.00;;;;;;;;5039905;28;8879;-73
2022/04/13 04:27:18;;;;;;;;;2.25;2.25;;;;;;;;5042596;28;8906;-73
2022/04/13 04:29:48;;;;;;;;;3.00;3.00;;;;;;;;5043245;28;8877;-72
2022/04/13 04:32:17;;;;;;;;;3.00;3.00;;;;;;;;5041316;28;8811;-71
2022/04/13 04:34:44;;;;;;;;;3.00;3.00;;;;;;;;5041701;28;8884;-72
2022/04/13 04:37:11;;;;;;;;;4.00;3.00;;;;;;;;5041620;28;8979;-72
2022/04/13 04:39:38;;;;;;;;;2.75;2.75;;;;;;;;5042092;28;8947;-72
2022/04/13 04:42:06;;;;;;;;;3.00;3.00;;;;;;;;5040548;28;9693;-72
2022/04/13 04:44:33;;;;;;;;;7.50;3.00;;;;;;;;5032507;28;9606;-72
2022/04/13 04:47:01;;;;;;;;;4.00;4.00;;;;;;;;5045153;28;8852;-72
2022/04/13 04:49:30;;;;;;;;;3.00;3.00;;;;;;;;5042470;28;8848;-72
2022/04/13 04:51:57;;;;;;;;;7.33;6.67;;;;;;;;5045811;28;8952;-72
2022/04/13 04:54:24;;;;;;;;;3.00;3.00;;;;;;;;5046743;28;9006;-72
2022/04/13 04:56:52;;;;;;;;;4.00;4.00;;;;;;;;5027949;28;8966;-72
2022/04/13 04:59:19;;;;;;;;;2.00;2.00;;;;;;;;5045996;28;8874;-73
2022/04/13 05:01:46;;;;;;;;;3.00;3.00;;;;;;;;5026161;28;8837;-73
2022/04/13 05:04:13;;;;;;;;;3.00;3.00;;;;;;;;5020085;28;8951;-72
2022/04/13 05:06:42;;;;;;;;;5.25;4.50;;;;;;;;5004738;28;8937;-73
2022/04/13 05:09:09;;;;;;;;;2.67;2.67;;;;;;;;5018161;28;8897;-73
2022/04/13 05:11:37;;;;;;;;;4.00;4.00;;;;;;;;5020166;28;9021;-73
2022/04/13 05:14:05;;;;;;;;;3.00;3.00;;;;;;;;5018529;28;8858;-73
2022/04/13 05:16:33;;;;;;;;;3.00;3.00;;;;;;;;5019668;28;8878;-73
2022/04/13 05:19:00;;;;;;;;;6.50;5.00;;;;;;;;5018524;28;8862;-73
2022/04/13 05:21:27;;;;;;;;;2.25;2.25;;;;;;;;5026279;28;8986;-74
2022/04/13 05:23:56;;;;;;;;;4.75;4.00;;;;;;;;5036738;28;8882;-75
2022/04/13 05:26:23;;;;;;;;;4.00;4.00;;;;;;;;5023119;28;8909;-74
2022/04/13 05:28:51;;;;;;;;;2.25;1.75;;;;;;;;5022427;28;8846;-76
2022/04/13 05:31:19;;;;;;;;;4.50;3.50;;;;;;;;5018324;28;9642;-76
2022/04/13 05:33:46;;;;;;;;;3.00;3.00;;;;;;;;5012363;28;8947;-75
2022/04/13 05:36:13;;;;;;;;;5.50;4.75;;;;;;;;5021689;28;8846;-75
2022/04/13 05:38:41;;;;;;;;;5.25;5.25;;;;;;;;5033668;28;9024;-74
2022/04/13 05:41:10;;;;;;;;;4.00;4.00;;;;;;;;5021937;28;8889;-75
2022/04/13 05:43:38;;;;;;;;;7.75;5.50;;;;;;;;5002788;28;8844;-75
2022/04/13 05:46:05;;;;;;;;;2.00;2.00;;;;;;;;5021107;28;8873;-77
2022/04/13 05:48:32;;;;;;;;;5.50;5.50;;;;;;;;4998870;28;8856;-81
2022/04/13 05:51:01;;;;;;;;;2.50;2.25;;;;;;;;5020200;28;8854;-78
2022/04/13 05:53:28;;;;;;;;;5.25;5.25;;;;;;;;5020746;28;8857;-80
2022/04/13 05:55:56;;;;;;;;;6.00;4.00;;;;;;;;5020467;28;9491;-80
2022/04/13 05:58:26;;;;;;;;;6.00;6.00;;;;;;;;5005812;28;8941;-79
2022/04/13 06:00:54;;;;;;;;;5.00;5.00;;;;;;;;5030169;28;8947;-79
2022/04/13 06:03:23;;;;;;;;;6.00;6.00;;;;;;;;5046409;28;8944;-79
2022/04/13 06:05:51;;;;;;;;;5.00;5.00;;;;;;;;5049506;28;8852;-80
2022/04/13 06:08:19;;;;;;;;;8.25;7.50;;;;;;;;5058872;28;8935;-80
2022/04/13 06:10:47;;;;;;;;;6.75;6.75;;;;;;;;5027550;28;8844;-79
2022/04/13 06:13:14;;;;;;;;;11.00;8.00;;;;;;;;5046280;28;8868;-81
2022/04/13 06:15:44;;;;;;;;;6.33;6.33;;;;;;;;5044931;28;8979;-80
2022/04/13 06:18:11;;;;;;;;;5.33;5.33;;;;;;;;5045594;28;9033;-82
2022/04/13 06:20:39;;;;;;;;;8.00;5.00;;;;;;;;5042648;28;8941;-83
2022/04/13 06:23:06;;;;;;;;;10.75;8.25;;;;;;;;5042538;28;8955;-81
2022/04/13 06:25:34;;;;;;;;;6.75;6.75;;;;;;;;5041664;28;8867;-79
2022/04/13 06:28:01;;;;;;;;;5.00;3.25;;;;;;;;5043229;28;8876;-82
2022/04/13 06:30:29;;;;;;;;;9.00;6.67;;;;;;;;5049225;28;8927;-78
2022/04/13 06:32:57;;;;;;;;;4.00;4.00;;;;;;;;5044156;28;8984;-78
2022/04/13 06:35:25;;;;;;;;;10.67;10.67;;;;;;;;5025758;28;8935;-80
2022/04/13 06:37:52;;;;;;;;;5.33;5.00;;;;;;;;5026806;28;9094;-77
2022/04/13 06:40:19;;;;;;;;;8.00;5.67;;;;;;;;5030145;28;9804;-76
2022/04/13 06:42:47;;;;;;;;;6.00;6.00;;;;;;;;5038049;28;9021;-81
2022/04/13 06:45:15;;;;;;;;;7.67;7.67;;;;;;;;5043893;28;9119;-78
2022/04/13 06:47:44;;;;;;;;;9.00;6.00;;;;;;;;5043956;28;9171;-81
2022/04/13 06:50:13;;;;;;;;;9.00;9.00;;;;;;;;5040125;28;9539;-81
2022/04/13 06:52:42;;;;;;;;;10.67;9.33;;;;;;;;5041812;28;9091;-83
2022/04/13 06:55:10;;;;;;;;;11.00;10.00;;;;;;;;5024396;28;8933;-81
2022/04/13 06:57:38;;;;;;;;;9.33;9.33;;;;;;;;5035883;28;9023;-83
2022/04/13 07:00:07;;;;;;;;;6.00;6.00;;;;;;;;5041027;28;9104;-83
2022/04/13 07:02:36;;;;;;;;;10.25;8.50;;;;;;;;5037310;28;9752;-83
2022/04/13 07:05:03;;;;;;;;;8.33;6.67;;;;;;;;5037651;28;8867;-81
2022/04/13 07:07:32;;;;;;;;;6.00;5.50;;;;;;;;5043880;28;8978;-81
2022/04/13 07:09:59;;;;;;;;;4.50;4.00;;;;;;;;5040104;28;8858;-82
2022/04/13 07:12:26;;;;;;;;;6.25;6.00;;;;;;;;5037036;28;9444;-82
2022/04/13 07:14:54;;;;;;;;;6.50;6.50;;;;;;;;5040096;28;8852;-81
2022/04/13 07:17:21;;;;;;;;;7.50;7.50;;;;;;;;5024712;28;8847;-77
2022/04/13 07:19:49;;;;;;;;;5.25;4.25;;;;;;;;5025302;28;8856;-78
2022/04/13 07:22:16;;;;;;;;;6.00;6.00;;;;;;;;5043079;28;8859;-81
2022/04/13 07:24:45;;;;;;;;;5.25;5.25;;;;;;;;5038775;28;8875;-82
2022/04/13 07:27:12;;;;;;;;;7.00;7.00;;;;;;;;5042685;28;9732;-79
2022/04/13 07:29:40;;;;;;;;;5.25;5.25;;;;;;;;5021407;28;8866;-80
2022/04/13 07:32:08;;;;;;;;;4.00;4.00;;;;;;;;5037306;28;8832;-81
2022/04/13 07:34:36;;;;;;;;;5.25;5.25;;;;;;;;5042431;28;8866;-81
2022/04/13 07:37:04;;;;;;;;;6.00;6.00;;;;;;;;5037903;28;8890;-77
2022/04/13 07:39:31;;;;;;;;;5.75;5.75;;;;;;;;5023417;28;9712;-78
2022/04/13 07:42:00;;;;;;;;;5.50;5.25;;;;;;;;5039412;28;8860;-81
2022/04/13 07:44:27;;;;;;;;;4.25;4.25;;;;;;;;5024388;28;8857;-79
2022/04/13 07:46:56;;;;;;;;;9.25;7.75;;;;;;;;5035939;28;8880;-81
2022/04/13 07:49:23;;;;;;;;;6.50;6.50;;;;;;;;5040935;28;8876;-80
2022/04/13 07:51:51;;;;;;;;;8.50;6.00;;;;;;;;5039922;28;8872;-79
2022/04/13 07:54:18;;;;;;;;;7.50;6.00;;;;;;;;5040662;28;8856;-78
2022/04/13 07:56:46;;;;;;;;;5.25;5.25;;;;;;;;5023673;28;8884;-79
2022/04/13 07:59:15;;;;;;;;;7.25;7.25;;;;;;;;5042610;28;8910;-80
2022/04/13 08:01:42;;;;;;;;;7.00;7.00;;;;;;;;5058192;28;8773;-81
2022/04/13 08:04:09;;;;;;;;;6.00;6.00;;;;;;;;5038654;28;8855;-80
2022/04/13 08:06:36;;;;;;;;;6.00;6.00;;;;;;;;5024588;28;8870;-79
2022/04/13 08:09:04;;;;;;;;;8.00;5.75;;;;;;;;5039504;28;8974;-78
2022/04/13 08:11:31;;;;;;;;;10.25;6.50;;;;;;;;5040010;28;8868;-81
2022/04/13 08:13:58;;;;;;;;;6.00;6.00;;;;;;;;5040855;28;8828;-78
2022/04/13 08:16:27;;;;;;;;;8.50;8.00;;;;;;;;5037575;28;8913;-78
2022/04/13 08:18:54;;;;;;;;;6.75;6.00;;;;;;;;5039476;28;8982;-79
2022/04/13 08:21:22;;;;;;;;;6.00;6.00;;;;;;;;5030772;28;8910;-79
2022/04/13 08:23:49;;;;;;;;;8.25;7.00;;;;;;;;5041244;28;8864;-80
2022/04/13 08:26:16;;;;;;;;;6.50;6.50;;;;;;;;5039199;28;8974;-80
2022/04/13 08:28:43;;;;;;;;;7.00;7.00;;;;;;;;5037804;28;8965;-79
2022/04/13 08:31:11;;;;;;;;;7.75;7.00;;;;;;;;5021926;28;8789;-78
2022/04/13 08:33:39;;;;;;;;;8.00;8.00;;;;;;;;5041370;28;9028;-80
2022/04/13 08:36:07;;;;;;;;;6.50;5.25;;;;;;;;5037763;28;8967;-82
2022/04/13 08:38:36;;;;;;;;;8.75;7.00;;;;;;;;5039788;28;8856;-77
2022/04/13 08:41:12;;;;;;;;;12.50;10.00;;;;;;;;5039833;28;8887;-78
2022/04/13 08:43:45;;;;;;;;;8.75;6.75;;;;;;;;5040492;28;8860;-79
2022/04/13 08:46:16;;;;;;;;;9.50;9.50;;;;;;;;5041462;28;8970;-79
2022/04/13 08:48:48;;;;;;;;;9.75;9.75;;;;;;;;5020292;28;8820;-78
2022/04/13 08:51:17;;;;;;;;;8.50;8.50;;;;;;;;5039286;28;8892;-79
2022/04/13 08:53:45;;;;;;;;;7.50;7.50;;;;;;;;5020714;28;8988;-77
2022/04/13 08:56:15;;;;;;;;;7.50;7.00;;;;;;;;5036191;28;9675;-83
2022/04/13 08:58:50;;;;;;;;;9.75;9.75;;;;;;;;5039210;28;8883;-77
2022/04/13 09:01:25;;;;;;;;;12.50;10.00;;;;;;;;5028658;28;8811;-78
2022/04/13 09:03:58;;;;;;;;;7.25;7.00;;;;;;;;5041346;28;8868;-79
2022/04/13 09:06:27;;;;;;;;;9.75;9.00;;;;;;;;5033086;28;8887;-78
2022/04/13 09:08:57;;;;;;;;;15.00;13.00;;;;;;;;5030549;28;8863;-77
2022/04/13 09:11:25;;;;;;;;;12.75;11.00;;;;;;;;5035839;28;8910;-78
2022/04/13 09:13:53;;;;;;;;;10.75;9.00;;;;;;;;5037601;28;8872;-78
2022/04/13 09:16:20;;;;;;;;;4.75;4.75;;;;;;;;5041041;28;8859;-78
2022/04/13 09:18:48;;;;;;;;;11.00;10.25;;;;;;;;4995688;28;8887;-78
2022/04/13 09:21:18;;;;;;;;;10.75;9.25;;;;;;;;5031943;28;8862;-77
2022/04/13 09:23:45;;;;;;;;;12.00;12.00;;;;;;;;5037841;28;8886;-77
2022/04/13 09:26:15;;;;;;;;;14.00;12.00;;;;;;;;5039920;28;8880;-76
2022/04/13 09:28:43;;;;;;;;;13.50;12.25;;;;;;;;5036016;28;8895;-79
2022/04/13 09:31:10;;;;;;;;;10.50;10.50;;;;;;;;5031070;28;8935;-76
2022/04/13 09:33:38;;;;;;;;;12.00;12.00;;;;;;;;5041390;28;8880;-77
2022/04/13 09:36:05;;;;;;;;;11.75;10.75;;;;;;;;5031555;28;10326;-78
2022/04/13 09:38:36;;;;;;;;;11.50;11.50;;;;;;;;5040149;28;8903;-78
2022/04/13 09:41:11;;;;;;;;;9.75;9.75;;;;;;;;5021186;28;8883;-78
2022/04/13 09:43:38;;;;;;;;;11.25;11.25;;;;;;;;5040018;28;8884;-79
2022/04/13 09:46:06;;;;;;;;;12.00;10.75;;;;;;;;5044148;28;8852;-75
2022/04/13 09:48:34;;;;;;;;;12.00;12.00;;;;;;;;5039970;28;8872;-80
2022/04/13 09:51:02;;;;;;;;;10.50;8.50;;;;;;;;5045804;28;8904;-81
2022/04/13 09:53:30;;;;;;;;;11.25;11.25;;;;;;;;5036877;28;8887;-81
2022/04/13 09:56:00;;;;;;;;;12.00;12.00;;;;;;;;5045893;28;9682;-81
2022/04/13 09:58:29;;;;;;;;;13.00;11.75;;;;;;;;5044618;28;8864;-81
2022/04/13 10:01:00;;;;;;;;;13.50;9.75;;;;;;;;5042158;28;9630;-79
2022/04/13 10:03:28;;;;;;;;;2.00;1.00;;;;;;;;5042074;28;8866;-82
2022/04/13 10:05:56;;;;;;;;;9.00;9.00;;;;;;;;5040636;28;8871;-80
2022/04/13 10:08:25;;;;;;;;;11.75;11.00;;;;;;;;5044702;28;8848;-80
2022/04/13 10:10:53;;;;;;;;;10.25;10.25;;;;;;;;5042947;28;8887;-81
2022/04/13 10:13:35;;;;;;;;;14.25;11.25;;;;;;;;5045459;28;8876;-81
2022/04/13 10:16:04;;;;;;;;;12.25;12.25;;;;;;;;5046159;28;9006;-81
2022/04/13 10:18:43;;;;;;;;;8.25;8.25;;;;;;;;5041679;28;8874;-81
2022/04/13 10:21:11;;;;;;;;;15.50;12.00;;;;;;;;5034333;28;8836;-80
2022/04/13 10:23:41;;;;;;;;;13.25;13.00;;;;;;;;5024663;28;8876;-81
2022/04/13 10:26:10;;;;;;;;;13.50;11.50;;;;;;;;5044934;28;8907;-80
2022/04/13 10:28:49;;;;;;;;;10.50;10.50;;;;;;;;5044090;28;8860;-81
2022/04/13 10:31:19;;;;;;;;;9.75;9.75;;;;;;;;5040543;28;9360;-78
2022/04/13 10:33:47;;;;;;;;;12.75;9.75;;;;;;;;5032771;28;8994;-80
2022/04/13 10:36:16;;;;;;;;;8.50;8.50;;;;;;;;5036323;28;8876;-80
2022/04/13 10:38:49;;;;;;;;;12.25;10.50;;;;;;;;5042516;28;8870;-77
2022/04/13 10:41:22;;;;;;;;;10.50;10.25;;;;;;;;5035817;28;8922;-79
2022/04/13 10:43:53;;;;;;;;;7.50;7.50;;;;;;;;5041128;28;8979;-82
2022/04/13 10:46:23;;;;;;;;;13.50;11.25;;;;;;;;5035432;28;8880;-79
2022/04/13 10:48:55;;;;;;;;;11.00;10.75;;;;;;;;5039542;28;8872;-83
2022/04/13 10:51:28;;;;;;;;;7.00;7.00;;;;;;;;5032096;28;8858;-83
2022/04/13 10:54:02;;;;;;;;;12.00;12.00;;;;;;;;5042861;28;9661;-81
2022/04/13 10:56:33;;;;;;;;;13.50;12.75;;;;;;;;5043509;28;8888;-80
2022/04/13 10:59:12;;;;;;;;;16.50;13.50;;;;;;;;5018988;28;8895;-83
2022/04/13 11:01:49;;;;;;;;;13.00;13.00;;;;;;;;5040534;28;8844;-82
2022/04/13 11:04:18;;;;;;;;;12.50;11.00;;;;;;;;5044322;28;9684;-81
2022/04/13 11:06:46;;;;;;;;;11.00;11.00;;;;;;;;5044262;28;8868;-83
2022/04/13 11:09:21;;;;;;;;;9.00;9.00;;;;;;;;5041876;28;9599;-80
2022/04/13 11:11:49;;;;;;;;;11.00;11.00;;;;;;;;5039549;28;8864;-80
2022/04/13 11:14:22;;;;;;;;;12.50;12.50;;;;;;;;5043253;28;8884;-82
2022/04/13 11:16:52;;;;;;;;;10.75;10.75;;;;;;;;5039162;28;8879;-80
2022/04/13 11:19:21;;;;;;;;;11.50;10.25;;;;;;;;5038523;28;8867;-78
2022/04/13 11:22:11;;;;;;;;;10.25;10.25;;;;;;;;5036033;28;8902;-81
2022/04/13 11:24:40;;;;;;;;;9.25;9.25;;;;;;;;5009448;28;8872;-79
2022/04/13 11:27:09;;;;;;;;;11.50;11.50;;;;;;;;5038179;28;8834;-78
2022/04/13 11:29:40;;;;;;;;;12.50;10.75;;;;;;;;5030441;28;9006;-84
2022/04/13 11:32:13;;;;;;;;;6.50;6.50;;;;;;;;5036938;28;8808;-77
2022/04/13 11:34:45;;;;;;;;;7.25;6.00;;;;;;;;5041188;28;9318;-78
2022/04/13 11:37:14;;;;;;;;;10.75;10.75;;;;;;;;5044520;28;8902;-78
2022/04/13 11:39:51;;;;;;;;;5.50;5.50;;;;;;;;5043459;28;8848;-79
2022/04/13 11:42:52;;;;;;;;;9.50;8.00;;;;;;;;5037061;28;8852;-84
2022/04/13 11:45:23;;;;;;;;;9.50;9.50;;;;;;;;5039427;28;8868;-77
2022/04/13 11:48:01;;;;;;;;;11.75;11.50;;;;;;;;5034643;28;8880;-77
2022/04/13 11:50:32;;;;;;;;;13.50;12.00;;;;;;;;5033621;28;8890;-77
2022/04/13 11:53:02;;;;;;;;;6.00;6.00;;;;;;;;5039496;28;8988;-80
2022/04/13 11:55:35;;;;;;;;;8.00;8.00;;;;;;;;5036886;28;8900;-79
2022/04/13 11:58:22;;;;;;;;;7.00;7.00;;;;;;;;5037192;28;9157;-78
2022/04/13 12:01:11;;;;;;;;;11.25;9.00;;;;;;;;5037479;28;8796;-79
2022/04/13 12:03:40;;;;;;;;;6.50;6.25;;;;;;;;5037181;28;8875;-77
2022/04/13 12:06:09;;;;;;;;;7.00;7.00;;;;;;;;5038304;28;9426;-80
2022/04/13 12:08:38;;;;;;;;;8.00;8.00;;;;;;;;5033887;28;8906;-80
2022/04/13 12:11:06;;;;;;;;;9.25;9.25;;;;;;;;5017937;28;8937;-79
2022/04/13 12:13:48;;;;;;;;;9.50;8.00;;;;;;;;5035528;28;8872;-80
2022/04/13 12:16:29;;;;;;;;;11.00;11.00;;;;;;;;5034107;28;9561;-80
2022/04/13 12:19:01;;;;;;;;;8.50;7.75;;;;;;;;5038121;28;8848;-79
2022/04/13 12:21:31;;;;;;;;;7.25;7.00;;;;;;;;5017684;28;8914;-79
2022/04/13 12:23:58;;;;;;;;;8.00;8.00;;;;;;;;5042120;28;8889;-77
2022/04/13 12:26:32;;;;;;;;;7.50;7.50;;;;;;;;5040915;28;9657;-81
2022/04/13 12:29:02;;;;;;;;;6.75;6.75;;;;;;;;5036668;28;8965;-75
2022/04/13 12:31:34;;;;;;;;;11.25;11.25;;;;;;;;5038023;28;8816;-79
2022/04/13 12:34:04;;;;;;;;;8.75;8.75;;;;;;;;5036607;28;8850;-78
2022/04/13 12:36:31;;;;;;;;;8.50;8.50;;;;;;;;5032467;28;8851;-79
2022/04/13 12:38:58;;;;;;;;;9.50;9.50;;;;;;;;5017123;28;8874;-80
2022/04/13 12:41:32;;;;;;;;;9.50;9.50;;;;;;;;5040090;28;8864;-78
2022/04/13 12:44:03;;;;;;;;;6.25;6.25;;;;;;;;5040644;28;8888;-82
2022/04/13 12:46:37;;;;;;;;;9.50;7.75;;;;;;;;5042716;28;8864;-81
2022/04/13 12:49:06;;;;;;;;;7.50;7.50;;;;;;;;5041916;28;9002;-80
2022/04/13 12:51:36;;;;;;;;;4.75;4.75;;;;;;;;5041460;28;8888;-80
2022/04/13 12:54:04;;;;;;;;;6.25;6.25;;;;;;;;5034882;28;8880;-81
2022/04/13 12:56:35;;;;;;;;;8.50;8.50;;;;;;;;5025465;28;9303;-82
2022/04/13 12:59:03;;;;;;;;;5.75;5.75;;;;;;;;5041402;28;8856;-78
2022/04/13 13:01:36;;;;;;;;;6.25;6.25;;;;;;;;5037172;28;8847;-78
2022/04/13 13:04:25;;;;;;;;;4.50;4.50;;;;;;;;5036556;28;8862;-82
2022/04/13 13:06:58;;;;;;;;;6.00;6.00;;;;;;;;5032453;28;8867;-79
2022/04/13 13:09:30;;;;;;;;;8.25;6.50;;;;;;;;5050458;28;9662;-78
2022/04/13 13:12:02;;;;;;;;;7.00;7.00;;;;;;;;5043491;28;8856;-80
2022/04/13 13:14:44;;;;;;;;;5.75;5.25;;;;;;;;5042704;28;8848;-81
2022/04/13 13:17:20;;;;;;;;;9.00;9.00;;;;;;;;5046978;28;9042;-82
2022/04/13 13:19:49;;;;;;;;;10.00;9.00;;;;;;;;5042397;28;8876;-80
2022/04/13 13:22:23;;;;;;;;;10.50;10.50;;;;;;;;5042267;28;8851;-80
2022/04/13 13:24:53;;;;;;;;;9.50;8.25;;;;;;;;5045719;28;8883;-84
2022/04/13 13:27:30;;;;;;;;;9.25;7.75;;;;;;;;5044642;28;8876;-82
2022/04/13 13:29:59;;;;;;;;;6.75;6.75;;;;;;;;5052417;28;8857;-81
2022/04/13 13:32:36;;;;;;;;;8.50;7.50;;;;;;;;5027119;28;8886;-82
2022/04/13 13:35:05;;;;;;;;;9.25;9.25;;;;;;;;5042961;28;8862;-81
2022/04/13 13:37:40;;;;;;;;;8.00;8.00;;;;;;;;5045100;28;8897;-82
2022/04/13 13:40:33;;;;;;;;;9.50;9.00;;;;;;;;5050230;28;8907;-82
2022/04/13 13:43:30;;;;;;;;;10.00;9.25;;;;;;;;5044634;28;8907;-82
2022/04/13 13:45:59;;;;;;;;;7.50;7.50;;;;;;;;5048666;28;8852;-80
2022/04/13 13:48:31;;;;;;;;;9.75;9.75;;;;;;;;5046019;28;8876;-81
2022/04/13 13:51:03;;;;;;;;;10.00;10.00;;;;;;;;5044789;28;8874;-81
2022/04/13 13:53:32;;;;;;;;;10.50;10.50;;;;;;;;5039038;28;8864;-80
2022/04/13 13:56:01;;;;;;;;;10.25;9.25;;;;;;;;5043220;28;8995;-80
2022/04/13 13:58:29;;;;;;;;;9.00;9.00;;;;;;;;5028171;28;9642;-80
2022/04/13 14:00:56;;;;;;;;;9.25;9.25;;;;;;;;5048430;28;8780;-80
2022/04/13 14:03:23;;;;;;;;;10.50;10.50;;;;;;;;5045268;28;8859;-80
2022/04/13 14:05:56;;;;;;;;;11.00;9.50;;;;;;;;5046420;28;9683;-80
2022/04/13 14:08:24;;;;;;;;;12.00;12.00;;;;;;;;5045001;28;8917;-80
2022/04/13 14:10:51;;;;;;;;;9.00;9.00;;;;;;;;5028027;28;8872;-80
2022/04/13 14:13:19;;;;;;;;;10.50;10.25;;;;;;;;5045176;28;8856;-80
2022/04/13 14:15:47;;;;;;;;;12.00;10.25;;;;;;;;5044992;28;8871;-80
2022/04/13 14:18:16;;;;;;;;;12.00;9.00;;;;;;;;5044770;28;8949;-81
2022/04/13 14:20:44;;;;;;;;;9.50;9.50;;;;;;;;5041820;28;8868;-81
2022/04/13 14:23:13;;;;;;;;;7.75;7.75;;;;;;;;5044995;28;8844;-82
2022/04/13 14:25:40;;;;;;;;;9.50;8.75;;;;;;;;5038490;28;8886;-80
2022/04/13 14:28:09;;;;;;;;;8.60;7.20;;;;;;;;5046800;28;8991;-79
2022/04/13 14:30:36;;;;;;;;;7.40;7.40;;;;;;;;5039682;28;8834;-80
2022/04/13 14:33:03;;;;;;;;;7.40;7.00;;;;;;;;5026686;28;8912;-81
2022/04/13 14:35:32;;;;;;;;;8.20;8.20;;;;;;;;5030605;28;9643;-82
2022/04/13 14:38:00;;;;;;;;;9.80;8.00;;;;;;;;4983804;28;9680;-80
2022/04/13 14:40:33;;;;;;;;;8.80;7.20;;;;;;;;5026672;28;9127;-82
2022/04/13 14:43:01;;;;;;;;;9.20;8.40;;;;;;;;5025180;28;9680;-82
2022/04/13 14:45:28;;;;;;;;;8.00;8.00;;;;;;;;5025618;28;8969;-81
2022/04/13 14:47:58;;;;;;;;;5.40;5.40;;;;;;;;5007628;28;8936;-81
2022/04/13 14:50:26;;;;;;;;;7.00;5.20;;;;;;;;5008607;28;8890;-82
2022/04/13 14:52:54;;;;;;;;;6.60;4.80;;;;;;;;5019290;28;8892;-82
2022/04/13 14:55:22;;;;;;;;;6.60;6.60;;;;;;;;5024958;28;8891;-82
2022/04/13 14:57:51;;;;;;;;;5.00;5.00;;;;;;;;5024572;28;8882;-81
2022/04/13 15:00:20;;;;;;;;;4.40;4.40;;;;;;;;5024980;28;8885;-82
2022/04/13 15:02:48;;;;;;;;;5.20;5.20;;;;;;;;5025132;28;8890;-82